Time;durP1;ratioP1;P1;durP2;ratioP2;P2;SDS_P1;SDS_P2;PMS_P1;PMS_P2;Temp;Humidity;BMP_temperature;BMP_pressure;BME280_temperature;BME280_humidity;BME280_pressure;Samples;Min_cycle;Max_cycle;Signal;HPM_P1;HPM_P2
2022/05/14 00:02:02;;;;;;;6.80;4.93;;;;;;;14.06;70.13;100067.66;1741645;81;21808;-73
2022/05/14 00:04:29;;;;;;;7.00;5.30;;;;;;;14.04;70.14;100059.63;1726793;80;21745;-74
2022/05/14 00:06:56;;;;;;;7.80;5.57;;;;;;;14.02;70.14;100061.84;1721342;82;21149;-74
2022/05/14 00:09:23;;;;;;;7.03;5.80;;;;;;;13.99;70.16;100060.52;1709909;82;21321;-73
2022/05/14 00:14:36;;;;;;;7.80;5.60;;;;;;;13.94;70.24;100059.80;1751195;81;21251;-74
2022/05/14 00:17:04;;;;;;;6.07;5.43;;;;;;;13.90;70.36;100054.20;1750785;80;21717;-73
2022/05/14 00:19:33;;;;;;;8.70;5.93;;;;;;;13.88;70.41;100051.55;1743670;80;21248;-73
2022/05/14 00:22:00;;;;;;;7.47;5.67;;;;;;;13.84;70.56;100053.48;1724857;82;21131;-73
2022/05/14 00:24:27;;;;;;;6.30;5.50;;;;;;;13.82;70.67;100052.98;1749279;80;21066;-74
2022/05/14 00:26:54;;;;;;;7.73;5.77;;;;;;;13.80;70.80;100051.67;1744482;81;21316;-74
2022/05/14 00:29:21;;;;;;;8.35;6.10;;;;;;;13.78;71.00;100046.58;1729993;81;22062;-73
2022/05/14 00:31:48;;;;;;;6.80;5.30;;;;;;;13.76;71.17;100039.93;1740863;80;21399;-74
2022/05/14 00:34:15;;;;;;;7.63;6.03;;;;;;;13.74;71.22;100032.70;1707415;82;21342;-73
2022/05/14 00:36:43;;;;;;;7.87;5.83;;;;;;;13.71;71.28;100028.70;1740568;81;21973;-72
2022/05/14 00:39:10;;;;;;;7.57;6.27;;;;;;;13.70;71.35;100031.14;1740257;81;21213;-73
2022/05/14 00:41:38;;;;;;;7.77;5.60;;;;;;;13.67;71.40;100025.02;1742071;81;21798;-73
2022/05/14 00:44:05;;;;;;;8.50;5.75;;;;;;;13.64;71.43;100018.88;1741668;82;21176;-73
2022/05/14 00:46:41;;;;;;;7.40;5.95;;;;;;;13.60;71.48;100021.90;1721905;82;21123;-73
2022/05/14 00:49:08;;;;;;;6.97;5.67;;;;;;;13.56;71.51;100020.34;1707796;82;21104;-73
2022/05/14 00:51:37;;;;;;;6.40;5.60;;;;;;;13.53;71.58;100015.55;1743552;80;20948;-73
2022/05/14 00:54:08;;;;;;;7.20;5.83;;;;;;;13.49;71.71;100013.20;1749577;80;21291;-73
2022/05/14 00:56:38;;;;;;;7.47;5.92;;;;;;;13.44;71.90;100011.91;1750407;80;21110;-73
2022/05/14 00:59:13;;;;;;;7.42;5.95;;;;;;;13.43;71.99;100009.53;1720379;82;21035;-74
2022/05/14 01:01:40;;;;;;;6.85;5.90;;;;;;;13.40;72.04;100006.88;1751425;80;21051;-73
2022/05/14 01:04:07;;;;;;;8.10;5.67;;;;;;;13.38;72.24;100011.72;1742573;80;21788;-73
2022/05/14 01:06:37;;;;;;;7.72;5.95;;;;;;;13.37;72.51;100006.91;1751216;80;20960;-73
2022/05/14 01:09:06;;;;;;;6.42;5.40;;;;;;;13.35;72.85;100009.07;1749743;80;21154;-74
2022/05/14 01:11:36;;;;;;;8.25;6.37;;;;;;;13.33;73.25;100007.23;1752786;80;21004;-74
2022/05/14 01:14:03;;;;;;;6.92;6.12;;;;;;;13.30;73.69;100006.47;1751524;80;20996;-74
2022/05/14 01:16:32;;;;;;;6.62;5.85;;;;;;;13.29;74.02;100000.86;1749948;80;21250;-74
2022/05/14 01:19:00;;;;;;;8.85;5.58;;;;;;;13.27;74.29;99996.86;1748880;80;21052;-74
2022/05/14 01:21:54;;;;;;;7.95;5.87;;;;;;;13.23;74.43;99995.27;1748674;80;21537;-73
2022/05/14 01:27:24;;;;;;;13.80;6.70;;;;;;;13.16;74.69;99998.83;1692206;82;20956;-74
2022/05/14 01:29:52;;;;;;;8.08;6.78;;;;;;;13.18;74.76;99995.88;1740848;80;21772;-74
2022/05/14 01:32:19;;;;;;;7.75;6.33;;;;;;;13.18;74.86;99991.30;1741789;81;21016;-73
2022/05/14 01:34:46;;;;;;;8.13;6.25;;;;;;;13.17;74.93;99985.70;1747044;80;21054;-73
2022/05/14 01:37:15;;;;;;;10.00;6.67;;;;;;;13.14;74.98;99983.59;1744622;80;21036;-74
2022/05/14 01:39:46;;;;;;;9.97;6.67;;;;;;;13.12;75.01;99982.52;1747755;81;21003;-74
2022/05/14 01:42:13;;;;;;;8.58;6.85;;;;;;;13.10;75.06;99990.61;1748649;80;21414;-73
2022/05/14 01:44:40;;;;;;;9.50;6.43;;;;;;;13.06;75.17;99994.93;1747927;81;20988;-73
2022/05/14 01:47:08;;;;;;;7.60;6.45;;;;;;;13.07;75.25;99993.87;1746626;80;21681;-73
2022/05/14 01:49:36;;;;;;;9.33;6.62;;;;;;;13.08;75.28;99994.91;1736432;81;21054;-73
2022/05/14 01:52:03;;;;;;;8.15;6.62;;;;;;;13.10;75.25;99997.31;1742141;80;21477;-73
2022/05/14 01:54:32;;;;;;;7.20;6.20;;;;;;;13.11;75.17;99991.66;1741420;81;21538;-72
2022/05/14 01:57:00;;;;;;;9.03;5.92;;;;;;;13.11;75.11;99988.97;1738412;81;21130;-72
2022/05/14 01:59:27;;;;;;;7.95;6.35;;;;;;;13.13;75.04;99992.18;1742702;81;21011;-72
2022/05/14 02:01:54;;;;;;;7.10;6.40;;;;;;;13.14;74.94;99990.29;1709120;82;21071;-73
2022/05/14 02:04:21;;;;;;;10.15;6.33;;;;;;;13.14;74.84;99996.44;1741674;80;22206;-73
2022/05/14 02:06:49;;;;;;;11.33;6.03;;;;;;;13.14;74.76;99996.99;1722338;82;21186;-73
2022/05/14 02:09:17;;;;;;;9.28;5.75;;;;;;;13.13;74.75;99996.75;1709705;82;21021;-73
2022/05/14 02:11:46;;;;;;;7.90;5.83;;;;;;;13.12;74.80;99993.24;1740016;80;20977;-73
2022/05/14 02:14:23;;;;;;;7.75;5.30;;;;;;;13.11;74.93;100000.25;1706693;82;21019;-73
2022/05/14 02:16:50;;;;;;;6.10;5.25;;;;;;;13.08;74.94;99998.14;1747434;80;20992;-74
2022/05/14 02:19:17;;;;;;;8.00;5.80;;;;;;;13.06;74.90;99997.61;1745171;81;21111;-74
2022/05/14 02:21:45;;;;;;;10.65;5.50;;;;;;;13.05;74.74;99995.48;1744229;81;20977;-74
2022/05/14 02:24:14;;;;;;;6.50;5.20;;;;;;;13.05;74.60;99992.00;1749533;81;21569;-73
2022/05/14 02:26:42;;;;;;;6.55;5.50;;;;;;;13.03;74.41;99991.48;1745958;80;21032;-73
2022/05/14 02:29:09;;;;;;;8.35;5.28;;;;;;;13.04;74.32;99985.84;1739973;81;20952;-73
2022/05/14 02:31:36;;;;;;;7.08;6.17;;;;;;;13.06;74.21;99985.55;1741584;81;21659;-73
2022/05/14 02:34:03;;;;;;;7.70;5.78;;;;;;;13.06;74.14;99987.71;1741852;81;21047;-72
2022/05/14 02:36:30;;;;;;;9.00;6.20;;;;;;;13.09;74.10;99989.00;1740665;81;21500;-73
2022/05/14 02:38:57;;;;;;;7.65;6.10;;;;;;;13.11;74.12;99993.00;1740874;80;21020;-73
2022/05/14 02:41:26;;;;;;;7.90;5.97;;;;;;;13.14;74.16;99987.61;1747727;81;21075;-73
2022/05/14 02:43:53;;;;;;;8.38;6.28;;;;;;;13.18;74.20;99975.77;1712610;82;21912;-73
2022/05/14 02:46:20;;;;;;;6.80;5.70;;;;;;;13.22;74.23;99978.91;1721520;82;21008;-73
2022/05/14 02:48:49;;;;;;;6.47;5.78;;;;;;;13.26;74.27;99977.30;1741591;80;20996;-74
2022/05/14 02:51:16;;;;;;;8.53;5.83;;;;;;;13.31;74.34;99977.77;1750921;81;21095;-74
2022/05/14 02:53:43;;;;;;;6.93;5.63;;;;;;;13.34;74.32;99977.98;1751738;80;21641;-73
2022/05/14 02:56:10;;;;;;;7.80;6.42;;;;;;;13.40;74.28;99977.92;1750723;80;21845;-73
2022/05/14 03:01:23;;;;;;;7.33;5.73;;;;;;;13.48;74.13;99974.02;1740696;81;21368;-74
2022/05/14 03:03:50;;;;;;;6.83;5.73;;;;;;;13.52;74.04;99976.92;1742540;81;21789;-72
2022/05/14 03:06:18;;;;;;;6.87;5.77;;;;;;;13.57;74.06;99973.62;1742838;80;21643;-74
2022/05/14 03:08:45;;;;;;;7.77;5.87;;;;;;;13.70;74.06;99978.81;1745700;81;21544;-74
2022/05/14 03:11:12;;;;;;;6.20;5.00;;;;;;;13.80;73.94;99979.20;1742131;81;21221;-74
2022/05/14 03:13:40;;;;;;;6.33;5.13;;;;;;;13.90;73.83;99969.64;1741606;81;21214;-74
2022/05/14 03:16:07;;;;;;;8.87;5.57;;;;;;;14.02;73.72;99967.30;1742091;81;21283;-72
2022/05/14 03:18:36;;;;;;;8.97;5.70;;;;;;;14.13;73.72;99969.27;1744758;80;21261;-72
2022/05/14 03:21:03;;;;;;;6.63;5.17;;;;;;;14.23;73.62;99965.05;1749713;80;21327;-73
2022/05/14 03:23:33;;;;;;;7.27;5.00;;;;;;;14.33;73.47;99965.42;1742128;81;21829;-73
2022/05/14 03:26:01;;;;;;;6.10;5.20;;;;;;;14.42;73.33;99966.89;1710750;82;21922;-73
2022/05/14 03:28:30;;;;;;;5.80;4.33;;;;;;;14.48;73.08;99966.50;1742870;80;21998;-74
2022/05/14 03:30:57;;;;;;;6.60;5.17;;;;;;;14.55;72.88;99955.39;1751591;80;21166;-74
2022/05/14 03:33:24;;;;;;;5.67;4.80;;;;;;;14.60;72.70;99954.48;1749467;81;21215;-74
2022/05/14 03:35:52;;;;;;;7.03;5.00;;;;;;;14.65;72.58;99953.84;1743860;80;21258;-74
2022/05/14 03:38:19;;;;;;;7.73;5.30;;;;;;;14.68;72.45;99959.18;1690170;82;21217;-74
2022/05/14 03:40:47;;;;;;;7.10;4.93;;;;;;;14.68;72.39;99958.62;1746301;80;21185;-74
2022/05/14 03:43:15;;;;;;;5.80;4.70;;;;;;;14.70;72.37;99960.45;1751827;80;21816;-74
2022/05/14 03:45:42;;;;;;;7.10;4.70;;;;;;;14.75;72.33;99960.91;1749815;81;21183;-74
2022/05/14 03:48:09;;;;;;;8.30;5.30;;;;;;;14.81;72.32;99961.59;1746786;81;21748;-73
2022/05/14 03:50:36;;;;;;;7.60;5.10;;;;;;;14.89;72.22;99959.01;1741389;82;21377;-73
2022/05/14 03:53:04;;;;;;;7.50;4.60;;;;;;;14.99;72.10;99960.69;1740787;80;21295;-74
2022/05/14 03:55:31;;;;;;;6.10;4.53;;;;;;;15.07;72.01;99955.97;1716058;82;21343;-75
2022/05/14 03:57:58;;;;;;;6.40;4.50;;;;;;;15.12;71.99;99956.39;1707432;82;21257;-74
2022/05/14 04:00:27;;;;;;;7.33;4.10;;;;;;;15.21;72.08;99964.00;1748312;80;21311;-73
2022/05/14 04:02:54;;;;;;;6.27;4.20;;;;;;;15.33;72.03;99962.12;1718043;82;21267;-73
2022/05/14 04:05:22;;;;;;;8.70;4.40;;;;;;;15.44;71.86;99957.56;1707593;82;21637;-73
2022/05/14 04:07:51;;;;;;;8.10;4.03;;;;;;;15.55;71.62;99950.60;1746289;80;21296;-74
2022/05/14 04:10:18;;;;;;;5.33;4.20;;;;;;;15.64;71.37;99956.30;1721320;82;22228;-73
2022/05/14 04:12:46;;;;;;;6.30;3.90;;;;;;;15.74;71.15;99956.64;1738524;81;21386;-74
2022/05/14 04:15:14;;;;;;;5.13;3.80;;;;;;;15.83;70.86;99949.98;1713732;82;21338;-73
2022/05/14 04:17:41;;;;;;;8.67;4.20;;;;;;;15.93;70.62;99949.73;1707164;82;21400;-73
2022/05/14 04:20:10;;;;;;;6.03;4.00;;;;;;;15.99;70.45;99944.46;1750577;80;21331;-73
2022/05/14 04:22:37;;;;;;;7.43;3.93;;;;;;;16.10;69.95;99930.97;1750113;80;21615;-74
2022/05/14 04:25:06;;;;;;;8.03;3.77;;;;;;;16.10;69.95;99930.97;1751335;80;21917;-73
2022/05/14 04:27:33;;;;;;;6.63;4.00;;;;;;;16.41;69.99;99936.89;1741150;80;21457;-74
2022/05/14 04:30:00;;;;;;;7.73;3.90;;;;;;;16.41;69.99;99936.89;1741364;80;21452;-73
2022/05/14 04:32:28;;;;;;;5.97;3.93;;;;;;;16.56;69.28;99933.79;1734005;80;21973;-73
2022/05/14 04:34:57;;;;;;;6.67;3.90;;;;;;;16.78;68.54;99937.52;1740233;80;21427;-73
2022/05/14 04:37:24;;;;;;;5.37;3.97;;;;;;;17.05;67.44;99933.23;1740791;81;22109;-74
2022/05/14 04:39:52;;;;;;;6.53;3.80;;;;;;;17.05;67.44;99933.23;1722496;82;21816;-73
2022/05/14 04:42:18;;;;;;;5.63;3.70;;;;;;;17.21;66.97;99934.10;1709233;82;22334;-74
2022/05/14 04:44:45;;;;;;;8.47;4.20;;;;;;;17.36;66.33;99937.70;1740085;82;21696;-74
2022/05/14 04:47:14;;;;;;;5.77;3.87;;;;;;;17.48;65.82;99935.72;1749704;80;21622;-72
2022/05/14 04:49:44;;;;;;;7.83;4.30;;;;;;;17.62;65.32;99932.30;1750973;80;22201;-73
2022/05/14 04:52:11;;;;;;;5.13;3.93;;;;;;;17.72;64.58;99933.31;1746486;80;21651;-73
2022/05/14 04:54:38;;;;;;;7.17;4.10;;;;;;;17.79;64.02;99925.54;1715043;81;21669;-74
2022/05/14 04:57:06;;;;;;;5.30;3.80;;;;;;;17.98;62.56;99916.30;1750250;81;21104;-74
2022/05/14 04:59:34;;;;;;;6.13;3.57;;;;;;;18.04;61.86;99917.72;1751901;80;21127;-73
2022/05/14 05:04:48;;;;;;;7.83;4.40;;;;;;;18.05;61.25;99916.03;1748141;80;21094;-74
2022/05/14 05:07:15;;;;;;;6.90;4.00;;;;;;;18.15;61.26;99916.23;1745811;81;21091;-74
2022/05/14 05:09:46;;;;;;;7.60;4.28;;;;;;;18.32;60.99;99918.64;1747964;80;21060;-74
2022/05/14 05:12:14;;;;;;;5.87;3.93;;;;;;;18.47;60.52;99922.96;1741119;80;22128;-74
2022/05/14 05:14:41;;;;;;;6.03;4.20;;;;;;;18.60;59.63;99921.16;1732505;80;21427;-75
2022/05/14 05:17:08;;;;;;;6.20;4.33;;;;;;;18.70;59.31;99925.41;1742374;80;20964;-72
2022/05/14 05:19:35;;;;;;;7.30;4.03;;;;;;;18.81;58.88;99919.87;1731912;80;21079;-73
2022/05/14 05:22:03;;;;;;;5.20;3.67;;;;;;;18.95;58.34;99924.49;1744639;80;21102;-73
2022/05/14 05:24:32;;;;;;;7.43;3.83;;;;;;;19.03;57.62;99925.55;1740883;81;22089;-73
2022/05/14 05:27:00;;;;;;;6.03;3.90;;;;;;;18.98;56.57;99941.41;1741862;80;20992;-74
2022/05/14 05:29:27;;;;;;;4.80;3.50;;;;;;;18.84;56.59;99939.50;1751694;80;21004;-73
2022/05/14 05:31:54;;;;;;;8.20;4.30;;;;;;;18.73;56.54;99948.56;1743870;81;21831;-73
2022/05/14 05:34:21;;;;;;;10.83;5.10;;;;;;;18.64;56.54;99953.75;1750562;80;21063;-74
2022/05/14 05:36:47;;;;;;;7.13;4.53;;;;;;;18.53;56.46;99945.78;1742195;81;21848;-74
2022/05/14 05:39:15;;;;;;;6.23;4.37;;;;;;;18.49;56.74;99939.67;1746479;81;21554;-74
2022/05/14 05:41:42;;;;;;;7.10;4.80;;;;;;;18.50;56.43;99941.24;1746517;80;20956;-74
2022/05/14 05:44:09;;;;;;;6.53;4.13;;;;;;;18.46;56.38;99936.82;1739381;80;21087;-74
2022/05/14 05:46:38;;;;;;;6.03;4.40;;;;;;;18.42;56.55;99936.65;1743401;80;21067;-75
2022/05/14 05:49:08;;;;;;;5.90;4.23;;;;;;;18.41;56.58;99935.07;1747220;81;21771;-74
2022/05/14 05:51:35;;;;;;;8.20;3.83;;;;;;;18.41;56.44;99933.72;1739500;80;21075;-72
2022/05/14 05:56:51;;;;;;;6.40;4.03;;;;;;;18.57;56.35;99936.68;1737066;80;20996;-73
2022/05/14 05:59:16;;;;;;;7.53;3.80;;;;;;;18.68;55.43;99935.75;1733312;82;20973;-73
2022/05/14 06:01:44;;;;;;;6.23;4.00;;;;;;;18.70;55.24;99935.66;1729057;82;21530;-74
2022/05/14 06:04:11;;;;;;;7.70;4.00;;;;;;;18.73;54.86;99934.25;1738654;80;21473;-73
2022/05/14 06:06:43;;;;;;;8.57;4.73;;;;;;;18.80;54.32;99931.03;1750780;80;21495;-73
2022/05/14 06:09:09;;;;;;;9.47;4.50;;;;;;;18.91;54.26;99921.40;1747657;80;21068;-73
2022/05/14 06:11:36;;;;;;;9.10;4.20;;;;;;;19.05;53.86;99926.56;1745551;81;20977;-74
2022/05/14 06:14:04;;;;;;;5.33;3.70;;;;;;;19.19;53.46;99923.05;1737676;81;21140;-74
2022/05/14 06:16:31;;;;;;;6.30;3.93;;;;;;;19.29;52.70;99917.23;1751667;80;20940;-73
2022/05/14 06:18:58;;;;;;;8.97;4.10;;;;;;;19.35;52.14;99913.21;1746813;81;21064;-74
2022/05/14 06:21:25;;;;;;;6.10;3.90;;;;;;;19.46;52.06;99910.88;1747975;81;21484;-74
2022/05/14 06:23:52;;;;;;;8.00;4.17;;;;;;;19.59;51.75;99915.23;1749752;81;21016;-74
2022/05/14 06:26:21;;;;;;;6.67;4.07;;;;;;;19.60;50.92;99906.53;1743389;81;21004;-74
2022/05/14 06:28:48;;;;;;;6.97;4.03;;;;;;;19.57;50.81;99916.67;1742422;80;21016;-73
2022/05/14 06:31:16;;;;;;;8.33;4.00;;;;;;;19.55;50.53;99907.55;1742542;80;21170;-74
2022/05/14 06:33:47;;;;;;;6.10;4.27;;;;;;;19.56;50.43;99913.75;1709086;82;21016;-73
2022/05/14 06:36:15;;;;;;;10.18;4.70;;;;;;;19.62;50.43;99919.98;1722403;82;21122;-73
2022/05/14 06:38:42;;;;;;;9.97;4.67;;;;;;;19.67;49.44;99913.58;1738719;80;21148;-75
2022/05/14 06:41:12;;;;;;;6.73;4.20;;;;;;;19.61;48.65;99921.11;1748462;80;21090;-74
2022/05/14 06:43:39;;;;;;;8.43;4.50;;;;;;;19.61;49.15;99923.00;1744454;80;21051;-73
2022/05/14 06:46:06;;;;;;;7.90;4.30;;;;;;;19.65;48.77;99926.13;1749581;80;21114;-73
2022/05/14 06:48:35;;;;;;;9.50;4.77;;;;;;;19.74;48.50;99928.73;1748655;80;21036;-74
2022/05/14 06:51:05;;;;;;;9.27;4.90;;;;;;;19.80;48.06;99928.75;1749306;80;21132;-73
2022/05/14 06:53:35;;;;;;;8.03;4.45;;;;;;;19.74;47.50;99932.80;1746662;80;21048;-74
2022/05/14 06:56:02;;;;;;;7.37;4.67;;;;;;;19.68;47.44;99935.51;1741938;80;21043;-73
2022/05/14 06:58:33;;;;;;;7.20;4.40;;;;;;;19.67;47.52;99934.69;1741440;80;21059;-74
2022/05/14 07:01:00;;;;;;;8.63;4.97;;;;;;;19.71;47.81;99939.44;1738441;80;21423;-74
2022/05/14 07:08:59;;;;;;;7.97;4.70;;;;;;;19.73;47.21;99936.64;1750904;80;20985;-74
2022/05/14 07:11:26;;;;;;;8.83;4.93;;;;;;;19.75;46.75;99945.80;1748528;80;21016;-74
2022/05/14 07:13:54;;;;;;;6.17;4.50;;;;;;;19.73;47.09;99940.70;1747269;81;20929;-73
2022/05/14 07:16:21;;;;;;;8.03;4.87;;;;;;;19.74;47.44;99952.33;1748010;80;21197;-73
2022/05/14 07:18:48;;;;;;;9.13;4.90;;;;;;;19.74;47.31;99953.12;1712713;81;21099;-74
2022/05/14 07:21:15;;;;;;;9.97;5.13;;;;;;;19.80;47.33;99955.85;1709045;82;21094;-74
2022/05/14 07:23:44;;;;;;;8.97;4.93;;;;;;;19.90;47.09;99962.78;1738171;80;21090;-73
2022/05/14 07:26:11;;;;;;;8.43;5.00;;;;;;;19.96;47.25;99955.23;1749594;80;20972;-72
2022/05/14 07:28:37;;;;;;;8.03;4.40;;;;;;;19.98;47.31;99958.41;1749279;80;21131;-74
2022/05/14 07:31:04;;;;;;;9.03;5.33;;;;;;;20.03;47.00;99952.77;1750536;80;21102;-74
2022/05/14 07:33:31;;;;;;;9.50;5.20;;;;;;;20.01;46.88;99959.89;1747151;80;21514;-74
2022/05/14 07:36:04;;;;;;;10.90;5.20;;;;;;;20.00;46.90;99958.85;1750722;80;21032;-74
2022/05/14 07:38:32;;;;;;;8.17;4.70;;;;;;;20.04;46.03;99961.12;1749150;80;21040;-74
2022/05/14 07:40:59;;;;;;;7.83;4.57;;;;;;;20.09;46.65;99962.27;1753526;80;21059;-73
2022/05/14 07:43:30;;;;;;;8.00;4.80;;;;;;;20.19;46.23;99966.48;1749437;80;20968;-73
2022/05/14 07:46:00;;;;;;;6.20;4.50;;;;;;;20.25;46.56;99970.00;1731186;81;20989;-74
2022/05/14 07:48:31;;;;;;;9.28;5.45;;;;;;;20.27;46.15;99973.72;1750859;81;21008;-74
2022/05/14 07:51:00;;;;;;;7.62;5.28;;;;;;;20.33;46.13;99968.30;1744781;80;26870;-73
2022/05/14 07:53:30;;;;;;;7.97;5.13;;;;;;;20.44;46.46;99958.62;1746370;81;21207;-74
2022/05/14 07:55:57;;;;;;;8.13;5.50;;;;;;;20.52;45.35;99973.23;1749218;80;21032;-73
2022/05/14 07:58:24;;;;;;;9.67;5.53;;;;;;;20.55;44.94;99976.05;1749505;80;20973;-74
2022/05/14 08:00:51;;;;;;;10.23;5.57;;;;;;;20.53;44.89;99971.55;1747934;80;20997;-73
2022/05/14 08:03:18;;;;;;;9.57;5.57;;;;;;;20.54;44.45;99969.63;1731695;81;21605;-73
2022/05/14 08:05:46;;;;;;;10.50;6.40;;;;;;;20.45;44.26;99971.04;1740975;80;21130;-74
2022/05/14 08:08:13;;;;;;;9.03;6.23;;;;;;;20.41;45.06;99973.42;1740614;80;21117;-73
2022/05/14 08:10:40;;;;;;;8.70;5.50;;;;;;;20.42;45.46;99974.42;1740605;80;21064;-73
2022/05/14 08:13:13;;;;;;;11.97;6.80;;;;;;;20.41;45.77;99973.42;1740489;80;21628;-74
2022/05/14 08:15:37;;;;;;;13.03;6.97;;;;;;;20.42;45.96;99981.20;1741370;80;21020;-72
2022/05/14 08:18:04;;;;;;;11.13;6.53;;;;;;;20.46;45.17;99980.75;1742073;81;21133;-73
2022/05/14 08:20:31;;;;;;;13.57;7.77;;;;;;;20.56;44.76;99984.98;1742659;81;20980;-72
2022/05/14 08:25:44;;;;;;;16.50;10.07;;;;;;;20.64;41.80;99988.17;1746419;80;21068;-74
2022/05/14 08:28:11;;;;;;;15.93;9.03;;;;;;;20.70;40.72;99980.60;1752319;81;21063;-73
2022/05/14 08:30:39;;;;;;;13.83;9.50;;;;;;;20.73;40.49;99986.14;1744675;80;21154;-74
2022/05/14 08:33:07;;;;;;;17.37;10.43;;;;;;;20.74;39.72;99990.44;1747318;81;21055;-74
2022/05/14 08:35:35;;;;;;;14.00;9.50;;;;;;;20.76;40.54;99984.11;1751211;80;20957;-74
2022/05/14 08:38:02;;;;;;;16.97;9.87;;;;;;;20.79;40.10;99980.69;1749877;80;21064;-74
2022/05/14 08:40:40;;;;;;;15.60;9.37;;;;;;;20.80;39.79;99991.01;1750130;80;21460;-74
2022/05/14 08:43:17;;;;;;;17.47;10.27;;;;;;;20.78;39.72;99987.26;1741866;80;21254;-73
2022/05/14 08:45:44;;;;;;;15.60;10.47;;;;;;;20.74;39.75;99995.86;1740815;80;20969;-73
2022/05/14 08:48:24;;;;;;;16.70;10.87;;;;;;;20.72;40.00;99987.25;1716449;81;21115;-73
2022/05/14 08:51:10;;;;;;;16.10;10.63;;;;;;;20.70;40.17;99992.25;1702317;82;21022;-74
2022/05/14 08:53:39;;;;;;;17.27;11.30;;;;;;;20.68;40.43;99998.56;1750747;80;20968;-73
2022/05/14 08:56:29;;;;;;;17.87;10.83;;;;;;;20.64;40.20;100013.16;1749683;80;21290;-74
2022/05/14 08:59:06;;;;;;;17.47;11.43;;;;;;;20.57;40.81;99999.58;1746187;80;21051;-74
2022/05/14 09:01:41;;;;;;;18.73;11.53;;;;;;;20.52;40.82;100013.35;1748501;80;20944;-73
2022/05/14 09:04:09;;;;;;;20.17;11.53;;;;;;;20.48;40.79;100002.14;1751617;80;21016;-73
2022/05/14 09:06:37;;;;;;;16.23;10.43;;;;;;;20.44;40.75;100005.30;1750527;80;21031;-73
2022/05/14 09:09:05;;;;;;;20.73;11.50;;;;;;;20.47;41.37;100008.70;1744347;80;21284;-75
2022/05/14 09:11:44;;;;;;;19.30;11.93;;;;;;;20.51;41.71;100003.64;1750297;80;20961;-73
2022/05/14 09:14:36;;;;;;;17.80;12.07;;;;;;;20.57;41.27;100009.65;1749967;80;21143;-74
2022/05/14 09:17:14;;;;;;;21.37;12.33;;;;;;;20.62;41.12;100010.77;1746725;80;21039;-74
2022/05/14 09:19:44;;;;;;;21.13;13.20;;;;;;;20.60;41.27;100018.47;1748389;81;21169;-74
2022/05/14 09:22:37;;;;;;;19.00;12.77;;;;;;;20.56;41.68;100004.77;1751432;81;21926;-73
2022/05/14 09:25:30;;;;;;;18.20;12.20;;;;;;;20.55;41.92;100014.03;1728942;80;21059;-73
2022/05/14 09:28:02;;;;;;;19.20;12.57;;;;;;;20.45;41.94;100006.31;1707789;82;21642;-73
2022/05/14 09:30:36;;;;;;;16.47;11.63;;;;;;;20.38;42.40;100008.78;1709853;82;21048;-74
2022/05/14 09:33:07;;;;;;;15.80;11.60;;;;;;;20.41;42.36;100007.33;1740879;80;21015;-74
2022/05/14 09:35:34;;;;;;;19.87;12.58;;;;;;;20.39;42.08;100005.72;1751645;80;22109;-73
2022/05/14 09:38:22;;;;;;;16.60;11.43;;;;;;;20.39;42.47;100004.37;1742688;80;20944;-75
2022/05/14 09:40:50;;;;;;;17.20;11.30;;;;;;;20.51;42.30;100001.50;1714748;81;21559;-73
2022/05/14 09:43:25;;;;;;;16.23;10.50;;;;;;;20.69;42.25;99997.42;1739415;80;21526;-74
2022/05/14 09:46:00;;;;;;;18.80;11.23;;;;;;;20.85;41.89;99994.84;1708821;81;21550;-74
2022/05/14 09:48:38;;;;;;;18.23;11.83;;;;;;;20.96;42.13;99995.16;1747272;80;21215;-74
2022/05/14 09:51:08;;;;;;;20.53;12.47;;;;;;;21.06;41.46;99988.73;1698481;82;21345;-73
2022/05/14 09:53:42;;;;;;;17.83;12.03;;;;;;;21.15;40.48;99982.37;1736708;80;21173;-73
2022/05/14 09:56:34;;;;;;;20.90;14.33;;;;;;;21.25;41.27;99996.84;1748840;80;21011;-74
2022/05/14 09:59:18;;;;;;;14.43;11.47;;;;;;;21.41;40.85;99987.45;1712578;81;21420;-73
2022/05/14 10:02:01;;;;;;;14.43;7.67;;;;;;;21.52;39.24;99988.56;1744915;80;21288;-73
2022/05/14 10:04:52;;;;;;;10.03;6.87;;;;;;;21.62;36.77;99988.62;1751070;80;21043;-74
2022/05/14 10:07:33;;;;;;;14.97;8.17;;;;;;;21.67;35.93;99995.18;1719055;82;21307;-73
2022/05/14 10:10:22;;;;;;;13.38;9.15;;;;;;;21.70;35.04;99995.28;1724536;81;21614;-73
2022/05/14 10:13:28;;;;;;;11.63;7.93;;;;;;;21.69;35.30;99993.70;1720803;82;21068;-73
2022/05/14 10:16:27;;;;;;;12.07;8.03;;;;;;;21.73;35.32;99991.09;1722315;82;21187;-73
2022/05/14 10:19:17;;;;;;;10.77;8.87;;;;;;;21.77;35.25;99991.97;1750565;80;21531;-73
2022/05/14 10:22:14;;;;;;;13.90;9.37;;;;;;;21.84;35.18;99983.22;1749401;80;21048;-74
2022/05/14 10:28:22;;;;;;;12.80;8.30;;;;;;;22.18;35.53;99992.73;1751194;80;21036;-73
2022/05/14 10:31:12;;;;;;;10.93;7.63;;;;;;;22.33;34.79;99995.23;1748967;80;21235;-73
2022/05/14 10:33:40;;;;;;;12.33;7.83;;;;;;;22.29;34.39;99984.84;1709463;82;21519;-74
2022/05/14 10:36:15;;;;;;;12.37;8.90;;;;;;;22.26;34.88;99980.09;1710049;82;21118;-74
2022/05/14 10:38:53;;;;;;;11.40;8.50;;;;;;;22.24;34.86;99983.15;1738449;82;20995;-73
2022/05/14 10:41:33;;;;;;;10.90;8.33;;;;;;;22.24;35.43;99996.75;1735495;82;21027;-73
2022/05/14 10:44:10;;;;;;;10.93;7.53;;;;;;;22.28;35.58;99988.13;1715503;82;21076;-73
2022/05/14 10:46:39;;;;;;;13.83;9.40;;;;;;;22.36;35.83;99989.09;1713225;82;21055;-73
2022/05/14 10:49:35;;;;;;;15.07;10.93;;;;;;;22.44;35.46;99986.77;1721621;83;21391;-74
2022/05/14 10:52:04;;;;;;;13.83;9.80;;;;;;;22.47;35.16;99991.50;1721472;82;20984;-73
2022/05/14 10:54:33;;;;;;;16.43;10.20;;;;;;;22.44;35.47;99980.77;1698656;80;21031;-73
2022/05/14 10:57:16;;;;;;;13.40;9.93;;;;;;;22.49;35.78;99975.63;1751359;80;21112;-73
2022/05/14 10:59:52;;;;;;;12.27;9.67;;;;;;;22.62;35.43;99981.20;1748889;80;21169;-73
2022/05/14 11:02:32;;;;;;;11.40;8.27;;;;;;;22.76;34.92;99971.80;1748430;80;20976;-74
2022/05/14 11:04:59;;;;;;;10.27;7.93;;;;;;;22.95;34.93;99971.88;1748642;80;21011;-73
2022/05/14 11:07:37;;;;;;;13.77;8.13;;;;;;;23.13;33.60;99970.36;1750352;80;21634;-74
2022/05/14 11:10:22;;;;;;;11.65;7.42;;;;;;;23.23;33.53;99973.65;1735679;81;21433;-73
2022/05/14 11:12:52;;;;;;;9.70;7.13;;;;;;;23.38;33.84;99970.09;1734154;81;21036;-73
2022/05/14 11:15:27;;;;;;;10.23;7.27;;;;;;;23.48;33.17;99968.16;1740238;81;21602;-72
2022/05/14 11:18:10;;;;;;;10.23;7.07;;;;;;;23.55;32.97;99962.84;1731982;80;21016;-74
2022/05/14 11:20:39;;;;;;;10.07;6.97;;;;;;;23.52;32.77;99967.65;1742219;81;21047;-73
2022/05/14 11:23:10;;;;;;;11.53;6.90;;;;;;;23.47;33.36;99965.23;1739689;81;21482;-73
2022/05/14 11:25:38;;;;;;;12.88;6.65;;;;;;;23.47;33.79;99970.67;1748780;80;21467;-74
2022/05/14 11:28:23;;;;;;;11.63;7.20;;;;;;;23.50;34.01;99969.97;1752109;81;21035;-73
2022/05/14 11:31:15;;;;;;;9.70;6.70;;;;;;;23.61;33.83;99960.05;1751185;81;21475;-74
2022/05/14 11:33:42;;;;;;;9.27;6.20;;;;;;;23.79;34.04;99963.72;1686110;80;20897;-73
2022/05/14 11:36:20;;;;;;;9.63;6.07;;;;;;;23.88;32.81;99957.47;1745947;80;21523;-73
2022/05/14 11:38:54;;;;;;;7.83;4.80;;;;;;;23.84;32.77;99966.95;1749225;80;21055;-73
2022/05/14 11:41:30;;;;;;;7.23;4.57;;;;;;;23.77;32.47;99970.13;1740107;80;20964;-74
2022/05/14 11:43:56;;;;;;;7.17;4.50;;;;;;;23.54;33.25;99974.91;1741823;80;21019;-72
2022/05/14 11:46:44;;;;;;;7.23;3.90;;;;;;;23.43;33.63;99976.64;1740837;80;21098;-72
2022/05/14 11:49:26;;;;;;;6.60;3.80;;;;;;;23.36;33.65;99976.46;1745578;81;21084;-74
2022/05/14 11:52:20;;;;;;;7.20;3.90;;;;;;;23.20;33.38;99980.63;1746466;81;21567;-73
2022/05/14 11:55:11;;;;;;;5.90;3.80;;;;;;;23.01;33.80;99978.64;1741218;81;21024;-72
2022/05/14 11:57:52;;;;;;;5.73;3.23;;;;;;;22.86;33.61;99978.84;1742327;81;20977;-74
2022/05/14 12:00:28;;;;;;;7.28;3.47;;;;;;;22.79;33.84;99980.05;1742599;80;21098;-74
2022/05/14 12:03:23;;;;;;;7.30;3.87;;;;;;;22.78;34.33;99977.11;1735392;80;21107;-72
2022/05/14 12:06:04;;;;;;;7.20;3.90;;;;;;;22.84;34.31;99972.20;1726540;80;21569;-73
2022/05/14 12:08:55;;;;;;;;;;;;;;;22.87;34.10;99969.55;1743488;81;20980;-74
2022/05/14 12:11:56;;;;;;;6.10;3.23;;;;;;;22.87;34.29;99964.68;1742049;82;20886;-74
2022/05/14 12:14:33;;;;;;;6.30;3.90;;;;;;;22.75;34.36;99967.50;1741739;80;21048;-72